sensor_id;sensor_type;location;lat;lon;timestamp;P1;durP1;ratioP1;P2;durP2;ratioP2
70213;SDS011;60138;55.808;37.078;2023-05-19T00:01:08;3.37;;;2.47;;
70213;SDS011;60138;55.808;37.078;2023-05-19T00:03:36;4.38;;;3.05;;
70213;SDS011;60138;55.808;37.078;2023-05-19T00:06:02;4.50;;;3.53;;
70213;SDS011;60138;55.808;37.078;2023-05-19T00:08:29;3.63;;;2.42;;
70213;SDS011;60138;55.808;37.078;2023-05-19T00:10:56;4.50;;;2.63;;
70213;SDS011;60138;55.808;37.078;2023-05-19T00:13:22;4.37;;;2.80;;
70213;SDS011;60138;55.808;37.078;2023-05-19T00:15:49;5.13;;;3.40;;
70213;SDS011;60138;55.808;37.078;2023-05-19T00:18:15;5.35;;;3.30;;
70213;SDS011;60138;55.808;37.078;2023-05-19T00:20:42;5.75;;;3.20;;
70213;SDS011;60138;55.808;37.078;2023-05-19T00:23:09;4.47;;;2.85;;
70213;SDS011;60138;55.808;37.078;2023-05-19T00:25:35;5.83;;;3.00;;
70213;SDS011;60138;55.808;37.078;2023-05-19T00:28:01;7.30;;;3.40;;
70213;SDS011;60138;55.808;37.078;2023-05-19T00:30:27;6.22;;;3.13;;
70213;SDS011;60138;55.808;37.078;2023-05-19T00:32:54;4.40;;;3.05;;
70213;SDS011;60138;55.808;37.078;2023-05-19T00:35:20;4.37;;;2.97;;
70213;SDS011;60138;55.808;37.078;2023-05-19T00:37:47;4.95;;;2.78;;
70213;SDS011;60138;55.808;37.078;2023-05-19T00:40:13;5.70;;;3.10;;
70213;SDS011;60138;55.808;37.078;2023-05-19T00:42:39;4.93;;;3.58;;
70213;SDS011;60138;55.808;37.078;2023-05-19T00:45:05;4.83;;;3.40;;
70213;SDS011;60138;55.808;37.078;2023-05-19T00:47:32;4.70;;;3.10;;
70213;SDS011;60138;55.808;37.078;2023-05-19T00:49:58;5.13;;;2.92;;
70213;SDS011;60138;55.808;37.078;2023-05-19T00:52:24;5.45;;;3.47;;
70213;SDS011;60138;55.808;37.078;2023-05-19T00:54:51;6.07;;;3.65;;
70213;SDS011;60138;55.808;37.078;2023-05-19T00:57:19;6.53;;;3.50;;
70213;SDS011;60138;55.808;37.078;2023-05-19T00:59:46;4.32;;;2.95;;
70213;SDS011;60138;55.808;37.078;2023-05-19T01:02:15;4.03;;;2.75;;
70213;SDS011;60138;55.808;37.078;2023-05-19T01:04:41;4.97;;;2.70;;
70213;SDS011;60138;55.808;37.078;2023-05-19T01:07:07;5.32;;;2.35;;
70213;SDS011;60138;55.808;37.078;2023-05-19T01:09:33;4.57;;;2.30;;
70213;SDS011;60138;55.808;37.078;2023-05-19T01:11:59;4.28;;;3.03;;
70213;SDS011;60138;55.808;37.078;2023-05-19T01:14:27;4.90;;;3.33;;
70213;SDS011;60138;55.808;37.078;2023-05-19T01:16:55;5.30;;;2.47;;
70213;SDS011;60138;55.808;37.078;2023-05-19T01:25:06;6.18;;;3.70;;
70213;SDS011;60138;55.808;37.078;2023-05-19T01:33:02;5.05;;;3.53;;
70213;SDS011;60138;55.808;37.078;2023-05-19T01:35:30;5.90;;;4.45;;
70213;SDS011;60138;55.808;37.078;2023-05-19T01:37:57;6.18;;;4.07;;
70213;SDS011;60138;55.808;37.078;2023-05-19T01:40:25;7.03;;;3.80;;
70213;SDS011;60138;55.808;37.078;2023-05-19T01:42:52;6.25;;;3.90;;
70213;SDS011;60138;55.808;37.078;2023-05-19T01:45:19;6.80;;;4.10;;
70213;SDS011;60138;55.808;37.078;2023-05-19T01:47:46;6.78;;;4.20;;
70213;SDS011;60138;55.808;37.078;2023-05-19T01:50:17;5.85;;;3.38;;
70213;SDS011;60138;55.808;37.078;2023-05-19T01:52:43;6.53;;;4.63;;
70213;SDS011;60138;55.808;37.078;2023-05-19T01:55:09;7.50;;;3.33;;
70213;SDS011;60138;55.808;37.078;2023-05-19T01:57:39;5.75;;;3.33;;
70213;SDS011;60138;55.808;37.078;2023-05-19T02:02:53;6.68;;;4.22;;
70213;SDS011;60138;55.808;37.078;2023-05-19T02:05:44;7.38;;;3.65;;
70213;SDS011;60138;55.808;37.078;2023-05-19T02:08:23;6.90;;;4.15;;
70213;SDS011;60138;55.808;37.078;2023-05-19T02:10:56;11.47;;;5.13;;
70213;SDS011;60138;55.808;37.078;2023-05-19T02:13:29;5.47;;;3.72;;
70213;SDS011;60138;55.808;37.078;2023-05-19T02:16:01;6.35;;;4.05;;
70213;SDS011;60138;55.808;37.078;2023-05-19T02:18:31;6.45;;;4.45;;
70213;SDS011;60138;55.808;37.078;2023-05-19T02:20:56;8.93;;;4.68;;
70213;SDS011;60138;55.808;37.078;2023-05-19T02:23:23;5.77;;;3.90;;
70213;SDS011;60138;55.808;37.078;2023-05-19T02:25:48;8.05;;;4.38;;
70213;SDS011;60138;55.808;37.078;2023-05-19T02:28:14;5.60;;;3.85;;
70213;SDS011;60138;55.808;37.078;2023-05-19T02:30:40;7.37;;;4.60;;
70213;SDS011;60138;55.808;37.078;2023-05-19T02:33:06;8.85;;;4.50;;
70213;SDS011;60138;55.808;37.078;2023-05-19T02:35:31;8.87;;;4.37;;
70213;SDS011;60138;55.808;37.078;2023-05-19T02:37:57;7.82;;;3.58;;
70213;SDS011;60138;55.808;37.078;2023-05-19T02:40:24;8.10;;;4.30;;
70213;SDS011;60138;55.808;37.078;2023-05-19T02:42:50;7.60;;;3.70;;
70213;SDS011;60138;55.808;37.078;2023-05-19T02:45:16;8.88;;;4.28;;
70213;SDS011;60138;55.808;37.078;2023-05-19T02:47:41;8.15;;;4.20;;
70213;SDS011;60138;55.808;37.078;2023-05-19T02:50:07;8.18;;;4.80;;
70213;SDS011;60138;55.808;37.078;2023-05-19T02:52:33;6.85;;;4.70;;
70213;SDS011;60138;55.808;37.078;2023-05-19T02:54:59;7.72;;;4.50;;
70213;SDS011;60138;55.808;37.078;2023-05-19T02:57:25;6.67;;;3.70;;
70213;SDS011;60138;55.808;37.078;2023-05-19T02:59:51;10.20;;;4.32;;
70213;SDS011;60138;55.808;37.078;2023-05-19T03:02:17;5.68;;;3.97;;
70213;SDS011;60138;55.808;37.078;2023-05-19T03:04:43;8.10;;;4.40;;
70213;SDS011;60138;55.808;37.078;2023-05-19T03:07:09;8.60;;;4.18;;
70213;SDS011;60138;55.808;37.078;2023-05-19T03:09:35;8.02;;;4.90;;
70213;SDS011;60138;55.808;37.078;2023-05-19T03:12:02;6.83;;;4.43;;
70213;SDS011;60138;55.808;37.078;2023-05-19T03:14:28;12.57;;;5.65;;
70213;SDS011;60138;55.808;37.078;2023-05-19T03:16:57;6.80;;;4.60;;
70213;SDS011;60138;55.808;37.078;2023-05-19T03:19:23;7.28;;;4.63;;
70213;SDS011;60138;55.808;37.078;2023-05-19T03:21:48;10.23;;;4.87;;
70213;SDS011;60138;55.808;37.078;2023-05-19T03:24:14;6.95;;;4.60;;
70213;SDS011;60138;55.808;37.078;2023-05-19T03:26:40;7.57;;;5.03;;
70213;SDS011;60138;55.808;37.078;2023-05-19T03:29:05;7.35;;;4.30;;
70213;SDS011;60138;55.808;37.078;2023-05-19T03:31:34;8.55;;;4.45;;
70213;SDS011;60138;55.808;37.078;2023-05-19T03:34:00;9.03;;;5.00;;
70213;SDS011;60138;55.808;37.078;2023-05-19T03:36:26;12.43;;;4.63;;
70213;SDS011;60138;55.808;37.078;2023-05-19T03:38:52;9.20;;;5.30;;
70213;SDS011;60138;55.808;37.078;2023-05-19T03:41:17;8.05;;;4.65;;
70213;SDS011;60138;55.808;37.078;2023-05-19T03:43:43;11.30;;;5.40;;
70213;SDS011;60138;55.808;37.078;2023-05-19T03:46:09;6.30;;;4.43;;
70213;SDS011;60138;55.808;37.078;2023-05-19T03:49:13;7.82;;;5.10;;
70213;SDS011;60138;55.808;37.078;2023-05-19T03:51:57;10.07;;;5.45;;
70213;SDS011;60138;55.808;37.078;2023-05-19T03:54:32;9.13;;;4.80;;
70213;SDS011;60138;55.808;37.078;2023-05-19T03:56:58;10.02;;;5.30;;
70213;SDS011;60138;55.808;37.078;2023-05-19T03:59:24;9.45;;;5.40;;
70213;SDS011;60138;55.808;37.078;2023-05-19T04:01:50;9.37;;;5.67;;
70213;SDS011;60138;55.808;37.078;2023-05-19T04:04:16;8.00;;;5.45;;
70213;SDS011;60138;55.808;37.078;2023-05-19T04:06:44;11.23;;;5.50;;
70213;SDS011;60138;55.808;37.078;2023-05-19T04:09:11;7.20;;;5.40;;
70213;SDS011;60138;55.808;37.078;2023-05-19T04:11:38;9.65;;;5.35;;
70213;SDS011;60138;55.808;37.078;2023-05-19T04:14:05;8.63;;;5.75;;
70213;SDS011;60138;55.808;37.078;2023-05-19T04:16:31;9.00;;;5.18;;
70213;SDS011;60138;55.808;37.078;2023-05-19T04:18:59;8.57;;;5.80;;
70213;SDS011;60138;55.808;37.078;2023-05-19T04:21:25;7.97;;;4.97;;
70213;SDS011;60138;55.808;37.078;2023-05-19T04:23:53;10.40;;;6.18;;
70213;SDS011;60138;55.808;37.078;2023-05-19T04:26:19;23.13;;;5.90;;
70213;SDS011;60138;55.808;37.078;2023-05-19T04:28:45;8.67;;;5.43;;
70213;SDS011;60138;55.808;37.078;2023-05-19T04:31:12;8.70;;;5.93;;
70213;SDS011;60138;55.808;37.078;2023-05-19T04:33:38;8.88;;;6.05;;
70213;SDS011;60138;55.808;37.078;2023-05-19T04:36:05;9.23;;;6.00;;
70213;SDS011;60138;55.808;37.078;2023-05-19T04:38:32;7.80;;;4.97;;
70213;SDS011;60138;55.808;37.078;2023-05-19T04:40:58;8.53;;;6.13;;
70213;SDS011;60138;55.808;37.078;2023-05-19T04:43:23;7.10;;;5.65;;
70213;SDS011;60138;55.808;37.078;2023-05-19T04:45:49;8.13;;;6.03;;
70213;SDS011;60138;55.808;37.078;2023-05-19T04:48:16;9.77;;;6.13;;
70213;SDS011;60138;55.808;37.078;2023-05-19T04:50:42;8.20;;;6.03;;
70213;SDS011;60138;55.808;37.078;2023-05-19T04:53:08;9.38;;;6.18;;
70213;SDS011;60138;55.808;37.078;2023-05-19T04:55:34;13.85;;;7.00;;
70213;SDS011;60138;55.808;37.078;2023-05-19T04:58:01;10.65;;;6.30;;
70213;SDS011;60138;55.808;37.078;2023-05-19T05:00:27;10.07;;;6.30;;
70213;SDS011;60138;55.808;37.078;2023-05-19T05:03:02;11.68;;;7.45;;
70213;SDS011;60138;55.808;37.078;2023-05-19T05:05:28;9.43;;;6.38;;
70213;SDS011;60138;55.808;37.078;2023-05-19T05:07:54;11.57;;;6.18;;
70213;SDS011;60138;55.808;37.078;2023-05-19T05:10:22;10.23;;;6.45;;
70213;SDS011;60138;55.808;37.078;2023-05-19T05:12:48;8.83;;;5.90;;
70213;SDS011;60138;55.808;37.078;2023-05-19T05:15:14;9.43;;;6.40;;
70213;SDS011;60138;55.808;37.078;2023-05-19T05:17:40;13.57;;;7.65;;
70213;SDS011;60138;55.808;37.078;2023-05-19T05:20:07;11.63;;;7.07;;
70213;SDS011;60138;55.808;37.078;2023-05-19T05:22:33;12.23;;;7.13;;
70213;SDS011;60138;55.808;37.078;2023-05-19T05:24:59;11.85;;;7.07;;
70213;SDS011;60138;55.808;37.078;2023-05-19T05:27:26;13.05;;;8.70;;
70213;SDS011;60138;55.808;37.078;2023-05-19T05:29:52;16.48;;;7.30;;
70213;SDS011;60138;55.808;37.078;2023-05-19T05:32:19;10.70;;;6.83;;
70213;SDS011;60138;55.808;37.078;2023-05-19T05:34:45;12.32;;;7.20;;
70213;SDS011;60138;55.808;37.078;2023-05-19T05:37:11;13.80;;;7.47;;
70213;SDS011;60138;55.808;37.078;2023-05-19T05:39:37;11.68;;;7.63;;
70213;SDS011;60138;55.808;37.078;2023-05-19T05:42:03;12.50;;;7.93;;
70213;SDS011;60138;55.808;37.078;2023-05-19T05:44:29;11.35;;;6.88;;
70213;SDS011;60138;55.808;37.078;2023-05-19T05:46:56;9.60;;;6.38;;
70213;SDS011;60138;55.808;37.078;2023-05-19T05:49:23;13.73;;;7.72;;
70213;SDS011;60138;55.808;37.078;2023-05-19T05:51:49;12.17;;;6.67;;
70213;SDS011;60138;55.808;37.078;2023-05-19T05:54:14;12.43;;;7.43;;
70213;SDS011;60138;55.808;37.078;2023-05-19T05:56:46;12.85;;;7.35;;
70213;SDS011;60138;55.808;37.078;2023-05-19T05:59:12;12.73;;;7.57;;
70213;SDS011;60138;55.808;37.078;2023-05-19T06:01:40;12.40;;;7.17;;
70213;SDS011;60138;55.808;37.078;2023-05-19T06:04:08;13.23;;;8.25;;
70213;SDS011;60138;55.808;37.078;2023-05-19T06:06:34;12.13;;;6.63;;
70213;SDS011;60138;55.808;37.078;2023-05-19T06:09:01;9.18;;;6.75;;
70213;SDS011;60138;55.808;37.078;2023-05-19T06:11:27;14.73;;;8.00;;
70213;SDS011;60138;55.808;37.078;2023-05-19T06:13:56;11.63;;;7.03;;
70213;SDS011;60138;55.808;37.078;2023-05-19T06:16:41;11.77;;;7.45;;
70213;SDS011;60138;55.808;37.078;2023-05-19T06:19:08;11.05;;;7.05;;
70213;SDS011;60138;55.808;37.078;2023-05-19T06:21:33;13.93;;;8.10;;
70213;SDS011;60138;55.808;37.078;2023-05-19T06:23:59;16.60;;;7.93;;
70213;SDS011;60138;55.808;37.078;2023-05-19T06:26:25;11.07;;;7.20;;
70213;SDS011;60138;55.808;37.078;2023-05-19T06:28:51;14.97;;;7.57;;
70213;SDS011;60138;55.808;37.078;2023-05-19T06:31:17;11.80;;;7.05;;
70213;SDS011;60138;55.808;37.078;2023-05-19T06:33:50;11.30;;;7.80;;
70213;SDS011;60138;55.808;37.078;2023-05-19T06:36:16;12.45;;;7.53;;
70213;SDS011;60138;55.808;37.078;2023-05-19T06:38:43;14.40;;;6.97;;
70213;SDS011;60138;55.808;37.078;2023-05-19T06:41:11;12.52;;;7.20;;
70213;SDS011;60138;55.808;37.078;2023-05-19T06:43:37;11.80;;;7.32;;
70213;SDS011;60138;55.808;37.078;2023-05-19T06:46:02;12.77;;;6.80;;
70213;SDS011;60138;55.808;37.078;2023-05-19T06:48:30;11.02;;;7.50;;
70213;SDS011;60138;55.808;37.078;2023-05-19T06:50:57;12.30;;;6.15;;
70213;SDS011;60138;55.808;37.078;2023-05-19T06:53:23;9.65;;;6.43;;
70213;SDS011;60138;55.808;37.078;2023-05-19T06:55:51;12.30;;;6.25;;
70213;SDS011;60138;55.808;37.078;2023-05-19T06:58:19;11.67;;;6.70;;
70213;SDS011;60138;55.808;37.078;2023-05-19T07:00:45;14.70;;;7.07;;
70213;SDS011;60138;55.808;37.078;2023-05-19T07:03:14;9.98;;;5.78;;
70213;SDS011;60138;55.808;37.078;2023-05-19T07:05:40;11.17;;;5.07;;
70213;SDS011;60138;55.808;37.078;2023-05-19T07:08:06;15.88;;;5.60;;
70213;SDS011;60138;55.808;37.078;2023-05-19T07:10:31;9.55;;;5.35;;
70213;SDS011;60138;55.808;37.078;2023-05-19T07:12:58;7.27;;;4.43;;
70213;SDS011;60138;55.808;37.078;2023-05-19T07:15:29;12.20;;;4.80;;
70213;SDS011;60138;55.808;37.078;2023-05-19T07:17:55;8.30;;;5.43;;
70213;SDS011;60138;55.808;37.078;2023-05-19T07:20:23;9.20;;;5.22;;
70213;SDS011;60138;55.808;37.078;2023-05-19T07:22:49;14.50;;;5.27;;
70213;SDS011;60138;55.808;37.078;2023-05-19T07:25:14;11.32;;;4.78;;
70213;SDS011;60138;55.808;37.078;2023-05-19T07:27:40;13.43;;;4.60;;
70213;SDS011;60138;55.808;37.078;2023-05-19T07:30:06;10.13;;;4.00;;
70213;SDS011;60138;55.808;37.078;2023-05-19T07:32:33;7.88;;;3.90;;
70213;SDS011;60138;55.808;37.078;2023-05-19T07:34:59;8.07;;;3.93;;
70213;SDS011;60138;55.808;37.078;2023-05-19T07:37:25;8.07;;;3.83;;
70213;SDS011;60138;55.808;37.078;2023-05-19T07:39:51;9.67;;;4.50;;
70213;SDS011;60138;55.808;37.078;2023-05-19T07:42:16;8.90;;;4.10;;
70213;SDS011;60138;55.808;37.078;2023-05-19T07:44:43;11.30;;;4.40;;
70213;SDS011;60138;55.808;37.078;2023-05-19T07:47:08;8.67;;;3.57;;
70213;SDS011;60138;55.808;37.078;2023-05-19T07:49:34;6.38;;;3.88;;
70213;SDS011;60138;55.808;37.078;2023-05-19T07:52:00;7.83;;;4.13;;
70213;SDS011;60138;55.808;37.078;2023-05-19T07:54:25;7.28;;;3.90;;
70213;SDS011;60138;55.808;37.078;2023-05-19T07:56:51;9.23;;;4.20;;
70213;SDS011;60138;55.808;37.078;2023-05-19T07:59:17;9.93;;;4.20;;
70213;SDS011;60138;55.808;37.078;2023-05-19T08:01:43;7.17;;;3.50;;
70213;SDS011;60138;55.808;37.078;2023-05-19T08:04:09;5.32;;;3.28;;
70213;SDS011;60138;55.808;37.078;2023-05-19T08:06:35;8.00;;;3.22;;
70213;SDS011;60138;55.808;37.078;2023-05-19T08:09:00;8.40;;;3.53;;
70213;SDS011;60138;55.808;37.078;2023-05-19T08:11:26;8.77;;;3.70;;
70213;SDS011;60138;55.808;37.078;2023-05-19T08:13:52;9.47;;;3.10;;
70213;SDS011;60138;55.808;37.078;2023-05-19T08:16:17;8.50;;;3.38;;
70213;SDS011;60138;55.808;37.078;2023-05-19T08:18:43;7.45;;;2.88;;
70213;SDS011;60138;55.808;37.078;2023-05-19T08:21:09;13.82;;;3.25;;
70213;SDS011;60138;55.808;37.078;2023-05-19T08:23:35;4.63;;;3.03;;
70213;SDS011;60138;55.808;37.078;2023-05-19T08:26:01;20.50;;;3.08;;
70213;SDS011;60138;55.808;37.078;2023-05-19T08:28:27;6.20;;;2.77;;
70213;SDS011;60138;55.808;37.078;2023-05-19T08:30:52;6.68;;;3.88;;
70213;SDS011;60138;55.808;37.078;2023-05-19T08:33:18;4.20;;;2.80;;
70213;SDS011;60138;55.808;37.078;2023-05-19T08:35:44;5.35;;;2.38;;
70213;SDS011;60138;55.808;37.078;2023-05-19T08:38:09;4.60;;;2.57;;
70213;SDS011;60138;55.808;37.078;2023-05-19T08:40:36;5.40;;;2.85;;
70213;SDS011;60138;55.808;37.078;2023-05-19T08:43:02;9.70;;;3.23;;
70213;SDS011;60138;55.808;37.078;2023-05-19T08:45:28;4.30;;;2.10;;
70213;SDS011;60138;55.808;37.078;2023-05-19T08:47:55;7.18;;;2.40;;
70213;SDS011;60138;55.808;37.078;2023-05-19T08:50:22;4.97;;;2.35;;
70213;SDS011;60138;55.808;37.078;2023-05-19T08:53:12;4.33;;;2.20;;
70213;SDS011;60138;55.808;37.078;2023-05-19T08:58:39;8.20;;;3.03;;
70213;SDS011;60138;55.808;37.078;2023-05-19T09:01:06;4.78;;;2.40;;
70213;SDS011;60138;55.808;37.078;2023-05-19T09:03:35;8.98;;;2.88;;
70213;SDS011;60138;55.808;37.078;2023-05-19T09:06:01;8.07;;;2.37;;
70213;SDS011;60138;55.808;37.078;2023-05-19T09:08:27;5.47;;;1.90;;
70213;SDS011;60138;55.808;37.078;2023-05-19T09:10:53;8.25;;;2.47;;
70213;SDS011;60138;55.808;37.078;2023-05-19T09:13:19;5.40;;;1.90;;
70213;SDS011;60138;55.808;37.078;2023-05-19T09:15:45;11.73;;;2.47;;
70213;SDS011;60138;55.808;37.078;2023-05-19T09:18:12;12.07;;;2.78;;
70213;SDS011;60138;55.808;37.078;2023-05-19T09:20:39;6.50;;;2.07;;
70213;SDS011;60138;55.808;37.078;2023-05-19T09:23:05;7.82;;;1.80;;
70213;SDS011;60138;55.808;37.078;2023-05-19T09:25:32;4.63;;;2.00;;
70213;SDS011;60138;55.808;37.078;2023-05-19T09:27:58;6.13;;;1.95;;
70213;SDS011;60138;55.808;37.078;2023-05-19T09:30:24;4.80;;;1.80;;
70213;SDS011;60138;55.808;37.078;2023-05-19T09:32:50;4.28;;;2.13;;
70213;SDS011;60138;55.808;37.078;2023-05-19T09:35:16;3.90;;;2.38;;
70213;SDS011;60138;55.808;37.078;2023-05-19T09:37:42;10.47;;;2.27;;
70213;SDS011;60138;55.808;37.078;2023-05-19T09:40:08;11.23;;;2.30;;
70213;SDS011;60138;55.808;37.078;2023-05-19T09:42:37;24.00;;;2.67;;
70213;SDS011;60138;55.808;37.078;2023-05-19T09:45:04;3.33;;;1.67;;
70213;SDS011;60138;55.808;37.078;2023-05-19T09:50:03;10.40;;;2.20;;
70213;SDS011;60138;55.808;37.078;2023-05-19T09:52:37;5.03;;;1.83;;
70213;SDS011;60138;55.808;37.078;2023-05-19T09:55:07;13.55;;;2.95;;
70213;SDS011;60138;55.808;37.078;2023-05-19T09:57:35;16.55;;;2.58;;
70213;SDS011;60138;55.808;37.078;2023-05-19T10:00:05;5.20;;;2.30;;
70213;SDS011;60138;55.808;37.078;2023-05-19T10:02:32;8.73;;;2.27;;
70213;SDS011;60138;55.808;37.078;2023-05-19T10:04:58;4.50;;;1.73;;
70213;SDS011;60138;55.808;37.078;2023-05-19T10:07:25;6.13;;;1.83;;
70213;SDS011;60138;55.808;37.078;2023-05-19T10:09:51;5.20;;;1.60;;
70213;SDS011;60138;55.808;37.078;2023-05-19T10:12:18;5.60;;;2.47;;
70213;SDS011;60138;55.808;37.078;2023-05-19T10:14:44;8.27;;;1.80;;
70213;SDS011;60138;55.808;37.078;2023-05-19T10:17:11;7.90;;;2.00;;
70213;SDS011;60138;55.808;37.078;2023-05-19T10:19:38;10.18;;;1.88;;
70213;SDS011;60138;55.808;37.078;2023-05-19T10:22:05;7.88;;;1.90;;
70213;SDS011;60138;55.808;37.078;2023-05-19T10:24:31;10.93;;;2.63;;
70213;SDS011;60138;55.808;37.078;2023-05-19T10:26:57;3.50;;;1.67;;
70213;SDS011;60138;55.808;37.078;2023-05-19T10:29:28;9.10;;;2.13;;
70213;SDS011;60138;55.808;37.078;2023-05-19T10:31:58;5.03;;;1.85;;
70213;SDS011;60138;55.808;37.078;2023-05-19T10:37:33;7.57;;;2.03;;
70213;SDS011;60138;55.808;37.078;2023-05-19T10:40:08;5.75;;;2.03;;
70213;SDS011;60138;55.808;37.078;2023-05-19T10:42:39;11.45;;;2.60;;
70213;SDS011;60138;55.808;37.078;2023-05-19T10:45:12;11.85;;;2.47;;
70213;SDS011;60138;55.808;37.078;2023-05-19T10:47:51;3.92;;;1.92;;
70213;SDS011;60138;55.808;37.078;2023-05-19T10:50:19;7.60;;;2.22;;
70213;SDS011;60138;55.808;37.078;2023-05-19T10:52:44;7.40;;;1.95;;
70213;SDS011;60138;55.808;37.078;2023-05-19T10:55:17;6.72;;;2.20;;
70213;SDS011;60138;55.808;37.078;2023-05-19T11:01:14;9.48;;;2.47;;
70213;SDS011;60138;55.808;37.078;2023-05-19T11:03:45;3.23;;;1.60;;
70213;SDS011;60138;55.808;37.078;2023-05-19T11:06:20;3.30;;;1.40;;
70213;SDS011;60138;55.808;37.078;2023-05-19T11:08:54;5.55;;;1.90;;
70213;SDS011;60138;55.808;37.078;2023-05-19T11:11:24;6.32;;;1.90;;
70213;SDS011;60138;55.808;37.078;2023-05-19T11:13:50;4.77;;;1.80;;
70213;SDS011;60138;55.808;37.078;2023-05-19T11:16:28;4.72;;;1.80;;
70213;SDS011;60138;55.808;37.078;2023-05-19T11:19:00;5.50;;;1.70;;
70213;SDS011;60138;55.808;37.078;2023-05-19T11:24:07;7.80;;;1.53;;
70213;SDS011;60138;55.808;37.078;2023-05-19T11:26:39;4.65;;;1.30;;
70213;SDS011;60138;55.808;37.078;2023-05-19T11:29:06;5.43;;;1.73;;
70213;SDS011;60138;55.808;37.078;2023-05-19T11:31:32;2.55;;;1.30;;
70213;SDS011;60138;55.808;37.078;2023-05-19T11:33:58;6.70;;;1.48;;
70213;SDS011;60138;55.808;37.078;2023-05-19T11:36:24;9.30;;;1.77;;
70213;SDS011;60138;55.808;37.078;2023-05-19T11:38:51;7.55;;;2.05;;
70213;SDS011;60138;55.808;37.078;2023-05-19T11:41:17;5.03;;;1.77;;
70213;SDS011;60138;55.808;37.078;2023-05-19T11:43:43;4.93;;;1.60;;
70213;SDS011;60138;55.808;37.078;2023-05-19T11:46:08;5.63;;;1.48;;
70213;SDS011;60138;55.808;37.078;2023-05-19T11:48:34;4.20;;;1.40;;
70213;SDS011;60138;55.808;37.078;2023-05-19T11:51:00;5.40;;;1.40;;
70213;SDS011;60138;55.808;37.078;2023-05-19T11:53:26;6.82;;;1.27;;
70213;SDS011;60138;55.808;37.078;2023-05-19T11:55:51;4.37;;;1.60;;
70213;SDS011;60138;55.808;37.078;2023-05-19T11:58:17;7.43;;;1.48;;
70213;SDS011;60138;55.808;37.078;2023-05-19T12:00:49;11.10;;;2.10;;
70213;SDS011;60138;55.808;37.078;2023-05-19T12:03:19;3.65;;;1.30;;
70213;SDS011;60138;55.808;37.078;2023-05-19T12:05:46;8.55;;;2.05;;
70213;SDS011;60138;55.808;37.078;2023-05-19T12:08:13;4.88;;;1.70;;
70213;SDS011;60138;55.808;37.078;2023-05-19T12:10:40;4.37;;;1.10;;
70213;SDS011;60138;55.808;37.078;2023-05-19T12:13:06;5.60;;;1.10;;
70213;SDS011;60138;55.808;37.078;2023-05-19T12:15:31;7.07;;;1.42;;
70213;SDS011;60138;55.808;37.078;2023-05-19T12:17:58;4.23;;;1.57;;
70213;SDS011;60138;55.808;37.078;2023-05-19T12:20:25;4.22;;;1.40;;
70213;SDS011;60138;55.808;37.078;2023-05-19T12:22:53;3.60;;;1.30;;
70213;SDS011;60138;55.808;37.078;2023-05-19T12:25:20;4.60;;;1.38;;
70213;SDS011;60138;55.808;37.078;2023-05-19T12:27:46;6.35;;;1.40;;
70213;SDS011;60138;55.808;37.078;2023-05-19T12:30:12;5.50;;;1.20;;
70213;SDS011;60138;55.808;37.078;2023-05-19T12:32:38;3.17;;;1.02;;
70213;SDS011;60138;55.808;37.078;2023-05-19T12:35:04;4.10;;;1.10;;
70213;SDS011;60138;55.808;37.078;2023-05-19T12:37:31;3.13;;;1.33;;
70213;SDS011;60138;55.808;37.078;2023-05-19T12:39:58;5.05;;;1.20;;
70213;SDS011;60138;55.808;37.078;2023-05-19T12:42:27;5.50;;;0.80;;
70213;SDS011;60138;55.808;37.078;2023-05-19T12:44:53;2.57;;;1.00;;
70213;SDS011;60138;55.808;37.078;2023-05-19T12:47:19;3.72;;;1.33;;
70213;SDS011;60138;55.808;37.078;2023-05-19T12:49:55;5.10;;;1.10;;
70213;SDS011;60138;55.808;37.078;2023-05-19T12:52:25;4.00;;;1.20;;
70213;SDS011;60138;55.808;37.078;2023-05-19T12:55:05;8.80;;;1.40;;
70213;SDS011;60138;55.808;37.078;2023-05-19T12:57:35;4.68;;;1.40;;
70213;SDS011;60138;55.808;37.078;2023-05-19T13:00:13;20.58;;;1.73;;
70213;SDS011;60138;55.808;37.078;2023-05-19T13:02:59;2.67;;;1.10;;
70213;SDS011;60138;55.808;37.078;2023-05-19T13:05:27;5.20;;;1.23;;
70213;SDS011;60138;55.808;37.078;2023-05-19T13:07:54;3.97;;;1.88;;
70213;SDS011;60138;55.808;37.078;2023-05-19T13:10:27;5.97;;;1.45;;
70213;SDS011;60138;55.808;37.078;2023-05-19T13:12:53;7.38;;;2.00;;
70213;SDS011;60138;55.808;37.078;2023-05-19T13:15:23;5.15;;;1.52;;
70213;SDS011;60138;55.808;37.078;2023-05-19T13:17:51;11.27;;;1.93;;
70213;SDS011;60138;55.808;37.078;2023-05-19T13:20:18;7.45;;;1.30;;
70213;SDS011;60138;55.808;37.078;2023-05-19T13:22:44;2.90;;;1.27;;
70213;SDS011;60138;55.808;37.078;2023-05-19T13:25:11;3.28;;;0.95;;
70213;SDS011;60138;55.808;37.078;2023-05-19T13:27:36;3.13;;;1.23;;
70213;SDS011;60138;55.808;37.078;2023-05-19T13:30:02;3.38;;;1.13;;
70213;SDS011;60138;55.808;37.078;2023-05-19T13:32:31;4.00;;;1.38;;
70213;SDS011;60138;55.808;37.078;2023-05-19T13:34:58;6.40;;;1.57;;
70213;SDS011;60138;55.808;37.078;2023-05-19T13:37:25;3.67;;;0.75;;
70213;SDS011;60138;55.808;37.078;2023-05-19T13:39:50;3.90;;;1.63;;
70213;SDS011;60138;55.808;37.078;2023-05-19T13:42:16;6.57;;;1.57;;
70213;SDS011;60138;55.808;37.078;2023-05-19T13:44:45;2.72;;;1.20;;
70213;SDS011;60138;55.808;37.078;2023-05-19T13:47:11;5.13;;;1.20;;
70213;SDS011;60138;55.808;37.078;2023-05-19T13:49:37;4.05;;;1.10;;
70213;SDS011;60138;55.808;37.078;2023-05-19T13:52:03;6.07;;;1.20;;
70213;SDS011;60138;55.808;37.078;2023-05-19T13:54:30;8.23;;;1.20;;
70213;SDS011;60138;55.808;37.078;2023-05-19T13:56:55;6.38;;;1.00;;
70213;SDS011;60138;55.808;37.078;2023-05-19T13:59:21;8.23;;;1.20;;
70213;SDS011;60138;55.808;37.078;2023-05-19T14:01:47;12.05;;;1.30;;
70213;SDS011;60138;55.808;37.078;2023-05-19T14:04:17;7.33;;;1.30;;
70213;SDS011;60138;55.808;37.078;2023-05-19T14:06:43;7.05;;;1.80;;
70213;SDS011;60138;55.808;37.078;2023-05-19T14:09:10;3.80;;;1.05;;
70213;SDS011;60138;55.808;37.078;2023-05-19T14:11:36;5.45;;;1.00;;
70213;SDS011;60138;55.808;37.078;2023-05-19T14:14:01;3.03;;;0.93;;
70213;SDS011;60138;55.808;37.078;2023-05-19T14:16:28;4.88;;;1.25;;
70213;SDS011;60138;55.808;37.078;2023-05-19T14:18:54;5.18;;;1.00;;
70213;SDS011;60138;55.808;37.078;2023-05-19T14:21:20;4.73;;;1.10;;
70213;SDS011;60138;55.808;37.078;2023-05-19T14:23:45;4.10;;;0.80;;
70213;SDS011;60138;55.808;37.078;2023-05-19T14:26:11;6.15;;;1.33;;
70213;SDS011;60138;55.808;37.078;2023-05-19T14:28:37;8.13;;;1.13;;
70213;SDS011;60138;55.808;37.078;2023-05-19T14:31:03;4.32;;;1.27;;
70213;SDS011;60138;55.808;37.078;2023-05-19T14:33:28;3.57;;;0.90;;
70213;SDS011;60138;55.808;37.078;2023-05-19T14:35:54;6.30;;;1.05;;
70213;SDS011;60138;55.808;37.078;2023-05-19T14:38:20;6.77;;;1.27;;
70213;SDS011;60138;55.808;37.078;2023-05-19T14:40:46;7.60;;;1.17;;
70213;SDS011;60138;55.808;37.078;2023-05-19T14:43:11;5.32;;;1.33;;
70213;SDS011;60138;55.808;37.078;2023-05-19T14:45:37;4.50;;;1.00;;
70213;SDS011;60138;55.808;37.078;2023-05-19T14:48:03;5.93;;;1.13;;
70213;SDS011;60138;55.808;37.078;2023-05-19T14:50:29;3.27;;;1.03;;
70213;SDS011;60138;55.808;37.078;2023-05-19T14:52:56;4.50;;;2.63;;
70213;SDS011;60138;55.808;37.078;2023-05-19T14:55:22;6.32;;;1.30;;
70213;SDS011;60138;55.808;37.078;2023-05-19T14:57:47;6.10;;;1.20;;
70213;SDS011;60138;55.808;37.078;2023-05-19T15:00:13;3.30;;;1.00;;